Time,TemperatureF,DewpointF,PressureIn,WindDirection,WindDirectionDegrees,WindSpeedMPH,WindSpeedGustMPH,Humidity,HourlyPrecipIn,Conditions,Clouds,dailyrainin,SoftwareType,DateUTC
2013-05-01 01:02:00,54.0,38.0,-100.00,NNW,345,4.0,11.0,54,0.00,,,-99.99,,2013-05-01 06:02:00,
2013-05-01 01:12:00,54.0,38.0,-100.00,NNW,345,4.0,11.0,54,0.00,,,-99.99,,2013-05-01 06:12:00,
2013-05-01 01:22:00,54.0,38.0,-100.00,NNW,345,4.0,11.0,54,0.00,,,-99.99,,2013-05-01 06:22:00,
2013-05-01 01:32:00,54.0,38.0,-100.00,NNW,345,4.0,11.0,54,0.00,,,-99.99,,2013-05-01 06:32:00,
2013-05-01 04:01:00,51.0,40.0,-100.00,SSE,155,1.0,3.0,67,0.00,,,-99.99,,2013-05-01 09:01:00,
2013-05-01 04:12:00,51.0,40.0,-100.00,SSE,155,1.0,3.0,67,0.00,,,-99.99,,2013-05-01 09:12:00,
2013-05-01 04:21:00,51.0,40.0,-100.00,SSE,155,1.0,3.0,67,0.00,,,-99.99,,2013-05-01 09:21:00,
2013-05-01 04:33:00,51.0,40.0,-100.00,SSE,155,1.0,3.0,67,0.00,,,-99.99,,2013-05-01 09:33:00,
2013-05-01 05:03:00,49.0,41.0,-100.00,NNW,335,1.0,2.0,72,0.00,,,-99.99,,2013-05-01 10:03:00,
2013-05-01 05:12:00,49.0,41.0,-100.00,NNW,335,1.0,2.0,72,0.00,,,-99.99,,2013-05-01 10:12:00,
2013-05-01 05:22:00,49.0,41.0,-100.00,NNW,335,1.0,2.0,72,0.00,,,-99.99,,2013-05-01 10:22:00,
2013-05-01 05:33:00,49.0,41.0,-100.00,NNW,335,1.0,2.0,72,0.00,,,-99.99,,2013-05-01 10:33:00,
2013-05-01 06:02:00,49.0,42.0,-100.00,WNW,290,1.0,4.0,75,0.00,,,-99.99,,2013-05-01 11:02:00,
2013-05-01 06:11:00,49.0,42.0,-100.00,WNW,290,1.0,4.0,75,0.00,,,-99.99,,2013-05-01 11:11:00,
2013-05-01 06:22:00,49.0,42.0,-100.00,WNW,290,1.0,4.0,75,0.00,,,-99.99,,2013-05-01 11:22:00,
2013-05-01 06:32:00,49.0,42.0,-100.00,WNW,290,1.0,4.0,75,0.00,,,-99.99,,2013-05-01 11:32:00,
2013-05-01 08:01:00,53.0,44.0,-100.00,NW,320,1.0,2.0,74,0.00,,,-99.99,,2013-05-01 13:01:00,
2013-05-01 08:11:00,53.0,44.0,-100.00,NW,320,1.0,2.0,74,0.00,,,-99.99,,2013-05-01 13:11:00,
2013-05-01 08:21:00,53.0,44.0,-100.00,NW,320,1.0,2.0,74,0.00,,,-99.99,,2013-05-01 13:21:00,
2013-05-01 08:32:00,53.0,44.0,-100.00,NW,320,1.0,2.0,74,0.00,,,-99.99,,2013-05-01 13:32:00,
2013-05-01 10:01:00,56.0,33.0,-100.00,NNE,15,9.0,17.0,41,0.00,,,-99.99,,2013-05-01 15:01:00,
2013-05-01 10:11:00,56.0,33.0,-100.00,NNE,15,9.0,17.0,41,0.00,,,-99.99,,2013-05-01 15:11:00,
2013-05-01 10:21:00,56.0,33.0,-100.00,NNE,15,9.0,17.0,41,0.00,,,-99.99,,2013-05-01 15:21:00,
2013-05-01 10:33:00,56.0,33.0,-100.00,NNE,15,9.0,17.0,41,0.00,,,-99.99,,2013-05-01 15:33:00,
2013-05-01 11:40:00,64.0,26.0,-100.00,North,0,6.0,14.0,23,0.00,,,-99.99,,2013-05-01 16:40:00,
2013-05-01 12:02:00,64.0,26.0,-100.00,North,0,6.0,14.0,23,0.00,,,-99.99,,2013-05-01 17:02:00,
2013-05-01 12:12:00,64.0,26.0,-100.00,North,0,6.0,14.0,23,0.00,,,-99.99,,2013-05-01 17:12:00,
2013-05-01 12:22:00,64.0,26.0,-100.00,North,0,6.0,14.0,23,0.00,,,-99.99,,2013-05-01 17:22:00,
2013-05-01 12:32:00,64.0,26.0,-100.00,North,0,6.0,14.0,23,0.00,,,-99.99,,2013-05-01 17:32:00,
2013-05-01 14:02:00,65.0,29.0,-100.00,North,5,10.0,19.0,26,0.00,,,-99.99,,2013-05-01 19:02:00,
2013-05-01 14:11:00,65.0,29.0,-100.00,North,5,10.0,19.0,26,0.00,,,-99.99,,2013-05-01 19:11:00,
2013-05-01 14:22:00,65.0,29.0,-100.00,North,5,10.0,19.0,26,0.00,,,-99.99,,2013-05-01 19:22:00,
2013-05-01 14:32:00,65.0,29.0,-100.00,North,5,10.0,19.0,26,0.00,,,-99.99,,2013-05-01 19:32:00,
2013-05-01 15:02:00,63.0,29.0,-100.00,North,0,7.0,19.0,28,0.00,,,-99.99,,2013-05-01 20:02:00,
2013-05-01 15:11:00,63.0,29.0,-100.00,North,0,7.0,19.0,28,0.00,,,-99.99,,2013-05-01 20:11:00,
2013-05-01 15:21:00,63.0,29.0,-100.00,North,0,7.0,19.0,28,0.00,,,-99.99,,2013-05-01 20:21:00,
2013-05-01 15:32:00,63.0,29.0,-100.00,North,0,7.0,19.0,28,0.00,,,-99.99,,2013-05-01 20:32:00,
2013-05-01 17:03:00,63.0,30.0,-100.00,North,10,7.0,17.0,29,0.00,,,-99.99,,2013-05-01 22:03:00,
2013-05-01 17:12:00,63.0,30.0,-100.00,North,10,7.0,17.0,29,0.00,,,-99.99,,2013-05-01 22:12:00,
2013-05-01 17:23:00,63.0,30.0,-100.00,North,10,7.0,17.0,29,0.00,,,-99.99,,2013-05-01 22:23:00,
2013-05-01 17:33:00,63.0,30.0,-100.00,North,10,7.0,17.0,29,0.00,,,-99.99,,2013-05-01 22:33:00,
2013-05-01 22:01:00,43.0,28.0,-100.00,North,10,6.0,17.0,56,0.00,,,-99.99,,2013-05-02 03:01:00,
2013-05-01 22:11:00,43.0,28.0,-100.00,North,10,6.0,17.0,56,0.00,,,-99.99,,2013-05-02 03:11:00,
2013-05-01 22:22:00,43.0,28.0,-100.00,North,10,6.0,17.0,56,0.00,,,-99.99,,2013-05-02 03:22:00,
2013-05-01 22:33:00,43.0,28.0,-100.00,North,10,6.0,17.0,56,0.00,,,-99.99,,2013-05-02 03:33:00,
2013-05-01 23:03:00,41.0,27.0,-100.00,North,0,7.0,19.0,57,0.00,,,-99.99,,2013-05-02 04:03:00,
2013-05-01 23:12:00,41.0,27.0,-100.00,North,0,7.0,19.0,57,0.00,,,-99.99,,2013-05-02 04:12:00,
2013-05-01 23:23:00,41.0,27.0,-100.00,North,0,7.0,19.0,57,0.00,,,-99.99,,2013-05-02 04:23:00,
2013-05-01 23:33:00,41.0,27.0,-100.00,North,0,7.0,19.0,57,0.00,,,-99.99,,2013-05-02 04:33:00,